Time;durP1;ratioP1;P1;durP2;ratioP2;P2;SDS_P1;SDS_P2;PMS_P1;PMS_P2;Temp;Humidity;BMP_temperature;BMP_pressure;BME280_temperature;BME280_humidity;BME280_pressure;Samples;Min_cycle;Max_cycle;Signal;HPM_P1;HPM_P2
2022/09/23 00:00:20;;;;;;;3.05;2.70;;;14.10;75.40;;;;;;5050795;28;20388;-61
2022/09/23 00:02:50;;;;;;;3.67;2.90;;;14.20;75.60;;;;;;5054524;28;20029;-61
2022/09/23 00:05:17;;;;;;;2.95;2.60;;;14.20;75.50;;;;;;5052889;28;20106;-61
2022/09/23 00:07:43;;;;;;;3.10;2.53;;;14.20;75.50;;;;;;5053799;28;20029;-61
2022/09/23 00:10:09;;;;;;;2.72;2.35;;;14.20;75.60;;;;;;5054683;28;20464;-61
2022/09/23 00:12:35;;;;;;;2.72;2.28;;;14.20;75.70;;;;;;5054545;28;20059;-61
2022/09/23 00:15:01;;;;;;;3.75;2.80;;;14.20;75.60;;;;;;5053641;28;20496;-61
2022/09/23 00:17:27;;;;;;;2.85;2.30;;;14.20;75.60;;;;;;5053490;28;20036;-62
2022/09/23 00:19:54;;;;;;;2.85;2.40;;;14.20;75.60;;;;;;5055237;28;20028;-61
2022/09/23 00:22:20;;;;;;;3.25;2.60;;;14.20;75.60;;;;;;5052409;28;20060;-61
2022/09/23 00:24:45;;;;;;;2.67;2.47;;;14.20;75.60;;;;;;5053736;28;20063;-61
2022/09/23 00:27:11;;;;;;;2.42;2.22;;;14.20;75.60;;;;;;5054166;28;20017;-61
2022/09/23 00:29:37;;;;;;;3.55;2.75;;;14.20;75.70;;;;;;5051814;28;20066;-61
2022/09/23 00:32:04;;;;;;;2.40;2.20;;;14.20;75.80;;;;;;5053795;28;20485;-61
2022/09/23 00:34:29;;;;;;;2.63;2.42;;;14.20;75.80;;;;;;5053163;28;20112;-62
2022/09/23 00:36:55;;;;;;;4.82;2.63;;;14.20;75.80;;;;;;5052958;28;20183;-61
2022/09/23 00:39:22;;;;;;;3.45;2.60;;;14.20;75.80;;;;;;5052987;28;20033;-60
2022/09/23 00:41:48;;;;;;;2.55;2.30;;;14.20;75.80;;;;;;5053685;28;20071;-61
2022/09/23 00:44:39;;;;;;;3.67;2.33;;;14.20;75.90;;;;;;5053738;28;20021;-64
2022/09/23 00:47:13;;;;;;;3.60;2.70;;;14.20;75.80;;;;;;5052042;28;20972;-61
2022/09/23 00:49:40;;;;;;;3.05;2.72;;;14.20;75.80;;;;;;5053827;28;20032;-61
2022/09/23 00:52:13;;;;;;;2.67;2.47;;;14.20;75.90;;;;;;5051988;28;20033;-60
2022/09/23 00:54:39;;;;;;;2.75;2.30;;;14.20;75.80;;;;;;5052022;28;20024;-62
2022/09/23 00:57:05;;;;;;;3.08;2.70;;;14.20;75.90;;;;;;5053951;28;20498;-61
2022/09/23 00:59:32;;;;;;;3.00;2.40;;;14.20;75.90;;;;;;5053426;28;20136;-61
2022/09/23 01:02:01;;;;;;;3.47;2.55;;;14.20;75.90;;;;;;5053418;28;20036;-64
2022/09/23 01:04:28;;;;;;;2.97;2.50;;;14.20;76.00;;;;;;5052827;28;20039;-62
2022/09/23 01:06:54;;;;;;;2.88;2.45;;;14.20;76.00;;;;;;5053589;28;20029;-61
2022/09/23 01:09:21;;;;;;;3.40;2.50;;;14.20;76.00;;;;;;5051856;28;20087;-62
2022/09/23 01:11:50;;;;;;;2.80;2.50;;;14.20;75.90;;;;;;5054142;28;20017;-61
2022/09/23 01:14:46;;;;;;;2.72;2.15;;;14.20;75.90;;;;;;5051172;28;20040;-61
2022/09/23 01:17:20;;;;;;;3.03;2.65;;;14.20;75.90;;;;;;5049944;28;20036;-61
2022/09/23 01:20:04;;;;;;;3.35;2.90;;;14.20;75.90;;;;;;5052414;28;20033;-61
2022/09/23 01:22:55;;;;;;;2.90;2.50;;;14.20;75.80;;;;;;5052881;28;20356;-61
2022/09/23 01:25:32;;;;;;;3.28;2.53;;;14.20;76.00;;;;;;5047386;28;20025;-61
2022/09/23 01:28:23;;;;;;;3.22;2.50;;;14.10;75.90;;;;;;5054338;28;20029;-60
2022/09/23 01:31:07;;;;;;;2.92;2.58;;;14.10;76.70;;;;;;5053752;28;20021;-60
2022/09/23 01:33:50;;;;;;;2.97;2.67;;;14.00;76.10;;;;;;5049363;28;20017;-61
2022/09/23 01:36:52;;;;;;;3.20;2.75;;;14.00;76.30;;;;;;5051158;28;20029;-61
2022/09/23 01:39:40;;;;;;;3.65;3.05;;;13.90;76.20;;;;;;5049079;28;20024;-61
2022/09/23 01:42:17;;;;;;;3.33;2.83;;;13.90;76.30;;;;;;5050130;28;20518;-62
2022/09/23 01:44:55;;;;;;;3.22;2.63;;;13.80;76.70;;;;;;5050874;28;20050;-61
2022/09/23 01:47:29;;;;;;;3.90;3.20;;;13.70;76.70;;;;;;5054565;28;20028;-62
2022/09/23 01:53:00;;;;;;;3.97;3.00;;;13.70;77.10;;;;;;5056619;28;20043;-61
2022/09/23 01:55:34;;;;;;;3.08;2.67;;;13.70;77.30;;;;;;5053232;28;20051;-61
2022/09/23 01:58:07;;;;;;;5.05;3.15;;;13.70;77.30;;;;;;5055677;28;20411;-61
2022/09/23 02:00:39;;;;;;;2.83;2.50;;;13.60;77.40;;;;;;5056965;28;20139;-60
2022/09/23 02:03:14;;;;;;;2.75;2.45;;;13.70;77.50;;;;;;5055938;28;20059;-61
2022/09/23 02:05:47;;;;;;;3.50;2.75;;;13.60;77.50;;;;;;5057272;28;20021;-61
2022/09/23 02:08:28;;;;;;;2.95;2.60;;;13.60;77.60;;;;;;5056808;28;20024;-62
2022/09/23 02:11:06;;;;;;;2.72;2.53;;;13.60;77.70;;;;;;5056292;28;20024;-60
2022/09/23 02:13:47;;;;;;;3.15;2.60;;;13.60;77.70;;;;;;5054779;28;20045;-65
2022/09/23 02:16:28;;;;;;;2.50;2.30;;;13.60;77.80;;;;;;5056743;28;20067;-61
2022/09/23 02:19:03;;;;;;;3.03;2.38;;;13.60;77.80;;;;;;5056092;28;20056;-61
2022/09/23 02:21:33;;;;;;;2.65;2.40;;;13.60;77.90;;;;;;5056405;28;20033;-61
2022/09/23 02:24:15;;;;;;;2.97;2.60;;;13.60;77.90;;;;;;5055631;28;20021;-61
2022/09/23 02:27:04;;;;;;;;;;;13.60;77.90;;;;;;5056409;28;20399;-61
2022/09/23 02:29:39;;;;;;;2.70;2.30;;;13.60;77.90;;;;;;5041119;28;19919;-62
2022/09/23 02:32:36;;;;;;;2.47;2.28;;;13.60;77.90;;;;;;5056673;28;20051;-60
2022/09/23 02:35:08;;;;;;;2.78;2.38;;;13.60;77.90;;;;;;5056700;28;20034;-62
2022/09/23 02:37:56;;;;;;;2.78;2.30;;;13.60;78.10;;;;;;5055695;28;20013;-61
2022/09/23 02:40:43;;;;;;;3.05;2.70;;;13.60;78.10;;;;;;5054437;28;20031;-62
2022/09/23 02:43:28;;;;;;;3.10;2.55;;;13.60;78.10;;;;;;5055344;28;20037;-61
2022/09/23 02:45:54;;;;;;;2.78;2.42;;;13.60;78.20;;;;;;5055627;28;20064;-64
2022/09/23 02:48:29;;;;;;;3.25;2.58;;;13.60;78.00;;;;;;5055719;28;20021;-61
2022/09/23 02:50:54;;;;;;;2.88;2.50;;;13.70;78.20;;;;;;5055665;28;20021;-61
2022/09/23 02:53:24;;;;;;;2.58;2.38;;;13.60;78.30;;;;;;5054738;28;20049;-61
2022/09/23 02:55:50;;;;;;;2.97;2.67;;;13.60;78.20;;;;;;5054404;28;20029;-61
2022/09/23 02:58:16;;;;;;;2.83;2.53;;;13.60;78.30;;;;;;5055116;28;20036;-61
2022/09/23 03:01:14;;;;;;;2.60;2.40;;;13.70;78.40;;;;;;5055462;28;20488;-60
2022/09/23 03:04:05;;;;;;;2.47;2.28;;;13.60;78.30;;;;;;5019520;28;20151;-61
2022/09/23 03:07:24;;;;;;;3.15;2.60;;;13.60;78.50;;;;;;5055569;28;20013;-62
2022/09/23 03:10:22;;;;;;;2.80;2.60;;;13.60;78.60;;;;;;5042972;28;20037;-62
2022/09/23 03:13:22;;;;;;;2.75;2.47;;;13.60;78.50;;;;;;5052559;28;20047;-61
2022/09/23 03:16:02;;;;;;;2.40;2.20;;;13.60;78.50;;;;;;5055656;28;20033;-61
2022/09/23 03:18:40;;;;;;;2.80;2.50;;;13.60;78.60;;;;;;5054668;28;20032;-63
2022/09/23 03:21:14;;;;;;;3.60;2.63;;;13.60;78.70;;;;;;5055413;28;20029;-61
2022/09/23 03:23:41;;;;;;;2.72;2.50;;;13.60;78.80;;;;;;5054506;28;20063;-62
2022/09/23 03:26:19;;;;;;;3.72;2.60;;;13.60;78.70;;;;;;5046975;28;20013;-64
2022/09/23 03:28:45;;;;;;;3.17;2.45;;;13.60;78.90;;;;;;5050589;28;20104;-62
2022/09/23 03:31:13;;;;;;;2.42;2.08;;;13.60;78.80;;;;;;5055199;28;20028;-61
2022/09/23 03:33:42;;;;;;;3.17;2.70;;;13.60;78.90;;;;;;5051378;28;20029;-61
2022/09/23 03:39:02;;;;;;;3.25;2.67;;;13.70;78.90;;;;;;5055645;28;20126;-61
2022/09/23 03:41:37;;;;;;;2.65;2.38;;;13.70;78.80;;;;;;5054774;28;20132;-61
2022/09/23 03:44:06;;;;;;;3.75;3.00;;;13.70;78.80;;;;;;5054380;28;20029;-62
2022/09/23 03:46:34;;;;;;;3.85;3.28;;;13.70;78.70;;;;;;5055127;28;20017;-60
2022/09/23 03:49:18;;;;;;;3.60;2.80;;;13.70;78.80;;;;;;5055569;28;20029;-62
2022/09/23 03:51:44;;;;;;;3.78;3.00;;;13.70;78.80;;;;;;5054800;28;20033;-61
2022/09/23 03:54:10;;;;;;;3.67;2.83;;;13.70;78.80;;;;;;5054506;28;20428;-62
2022/09/23 03:56:36;;;;;;;4.10;3.38;;;13.60;78.80;;;;;;5054396;28;20058;-61
2022/09/23 03:59:02;;;;;;;3.55;2.95;;;13.60;79.50;;;;;;5054562;28;20021;-62
2022/09/23 04:01:28;;;;;;;3.10;2.80;;;13.60;79.00;;;;;;5053947;28;20052;-61
2022/09/23 04:03:54;;;;;;;3.53;2.90;;;13.60;79.10;;;;;;5054679;28;20025;-61
2022/09/23 04:06:20;;;;;;;3.75;3.10;;;13.50;79.20;;;;;;5053639;28;20029;-61
2022/09/23 04:08:45;;;;;;;3.00;2.70;;;13.50;79.30;;;;;;5053205;28;20021;-62
2022/09/23 04:11:11;;;;;;;3.00;2.70;;;13.50;79.40;;;;;;5053542;28;20050;-61
2022/09/23 04:13:37;;;;;;;2.83;2.63;;;13.50;79.50;;;;;;5053387;28;20033;-61
2022/09/23 04:16:02;;;;;;;4.35;3.20;;;13.50;79.50;;;;;;5054833;28;20028;-62
2022/09/23 04:18:28;;;;;;;3.55;3.15;;;13.50;79.50;;;;;;5054582;28;20110;-61
2022/09/23 04:21:00;;;;;;;3.85;3.25;;;13.50;79.50;;;;;;5053553;28;20032;-61
2022/09/23 04:23:26;;;;;;;3.92;3.38;;;13.50;79.50;;;;;;5052956;28;20075;-61
2022/09/23 04:25:52;;;;;;;4.57;3.67;;;13.50;79.50;;;;;;5052893;28;20041;-60
2022/09/23 04:28:18;;;;;;;4.82;3.60;;;13.50;79.50;;;;;;5053906;28;20017;-60
2022/09/23 04:30:45;;;;;;;4.55;3.58;;;13.50;79.60;;;;;;5050325;28;20032;-61
2022/09/23 04:33:12;;;;;;;4.72;3.75;;;13.50;79.60;;;;;;5053279;28;20021;-61
2022/09/23 04:35:39;;;;;;;5.18;3.75;;;13.50;79.70;;;;;;5047879;28;20021;-61
2022/09/23 04:38:05;;;;;;;5.00;3.47;;;13.50;79.80;;;;;;5054761;28;20051;-60
2022/09/23 04:40:32;;;;;;;4.22;3.42;;;13.50;80.00;;;;;;5054013;28;20074;-61
2022/09/23 04:42:57;;;;;;;5.05;3.72;;;13.50;80.00;;;;;;5052969;28;20172;-60
2022/09/23 04:45:23;;;;;;;5.63;4.07;;;13.50;80.10;;;;;;5048316;28;20567;-61
2022/09/23 04:47:49;;;;;;;4.40;3.80;;;13.50;80.10;;;;;;5054628;28;20052;-61
2022/09/23 04:50:15;;;;;;;5.50;4.30;;;13.50;80.20;;;;;;5049492;28;20385;-61
2022/09/23 04:52:40;;;;;;;6.25;4.75;;;13.50;80.20;;;;;;5051608;28;20035;-61
2022/09/23 04:55:07;;;;;;;6.32;4.35;;;13.50;80.20;;;;;;5049559;28;20025;-61
2022/09/23 04:57:33;;;;;;;5.95;4.45;;;13.50;80.30;;;;;;5051658;28;20445;-61
2022/09/23 04:59:59;;;;;;;5.47;4.20;;;13.50;80.40;;;;;;5053290;28;20056;-60
2022/09/23 05:02:27;;;;;;;5.75;4.50;;;13.50;80.50;;;;;;5051017;28;20041;-62
2022/09/23 05:04:53;;;;;;;7.28;4.43;;;13.50;80.60;;;;;;5053665;28;20031;-61
2022/09/23 05:07:18;;;;;;;6.10;4.90;;;13.50;80.50;;;;;;5053700;28;20013;-61
2022/09/23 05:09:44;;;;;;;5.78;4.53;;;13.50;80.50;;;;;;5053218;28;20129;-60
2022/09/23 05:12:10;;;;;;;6.05;4.53;;;13.50;80.50;;;;;;5051605;28;20419;-62
2022/09/23 05:14:37;;;;;;;5.78;4.68;;;13.50;80.70;;;;;;5052899;28;20051;-62
2022/09/23 05:17:04;;;;;;;6.68;4.82;;;13.50;80.70;;;;;;5054084;28;20472;-61
2022/09/23 05:19:29;;;;;;;4.90;4.10;;;13.50;80.60;;;;;;5048149;28;20508;-62
2022/09/23 05:21:55;;;;;;;5.53;4.38;;;13.60;80.70;;;;;;5050320;28;20071;-61
2022/09/23 05:24:21;;;;;;;6.10;5.03;;;13.60;81.40;;;;;;5053307;28;20067;-61
2022/09/23 05:26:47;;;;;;;6.35;4.85;;;13.70;80.70;;;;;;5054607;28;20068;-61
2022/09/23 05:29:13;;;;;;;5.97;4.63;;;13.70;80.60;;;;;;5054116;28;20021;-61
2022/09/23 05:31:39;;;;;;;6.07;4.57;;;13.60;80.50;;;;;;5052829;28;20029;-61
2022/09/23 05:34:05;;;;;;;6.75;4.65;;;13.60;80.50;;;;;;5054412;28;20033;-61
2022/09/23 05:36:32;;;;;;;5.03;4.18;;;13.70;80.40;;;;;;5052450;28;20037;-62
2022/09/23 05:38:58;;;;;;;6.07;4.63;;;13.70;80.60;;;;;;5054773;28;20503;-64
2022/09/23 05:41:25;;;;;;;5.57;4.40;;;13.70;80.60;;;;;;5042316;28;20063;-63
2022/09/23 05:43:51;;;;;;;6.00;4.50;;;13.70;80.50;;;;;;5046368;28;20488;-64
2022/09/23 05:46:23;;;;;;;5.20;4.18;;;13.80;80.50;;;;;;5045829;28;20116;-62
2022/09/23 05:48:49;;;;;;;6.75;4.85;;;13.90;80.50;;;;;;5045718;28;20029;-61
2022/09/23 05:51:17;;;;;;;5.55;4.35;;;13.90;80.30;;;;;;5048380;28;20476;-63
2022/09/23 05:53:46;;;;;;;5.85;4.80;;;13.90;80.30;;;;;;5048204;28;20067;-64
2022/09/23 05:56:14;;;;;;;5.60;4.40;;;14.00;80.40;;;;;;5053985;28;20024;-61
2022/09/23 05:58:40;;;;;;;6.50;4.82;;;14.10;80.30;;;;;;5053289;28;20028;-62
2022/09/23 06:01:10;;;;;;;6.82;5.03;;;14.10;80.20;;;;;;5039421;28;20508;-65
2022/09/23 06:03:36;;;;;;;6.65;4.85;;;14.20;80.00;;;;;;5046004;28;20039;-64
2022/09/23 06:06:02;;;;;;;6.00;4.93;;;14.20;79.90;;;;;;5050156;28;20095;-62
2022/09/23 06:08:28;;;;;;;6.53;4.90;;;14.30;79.80;;;;;;5049971;28;20017;-61
2022/09/23 06:10:53;;;;;;;6.85;4.85;;;14.30;79.70;;;;;;5048942;28;20040;-63
2022/09/23 06:13:19;;;;;;;5.90;4.93;;;14.30;79.60;;;;;;5051862;28;20037;-61
2022/09/23 06:15:44;;;;;;;7.43;5.22;;;14.40;79.70;;;;;;5050247;28;20324;-61
2022/09/23 06:18:11;;;;;;;7.68;6.13;;;14.40;79.60;;;;;;5046555;28;20017;-63
2022/09/23 06:20:37;;;;;;;6.15;5.45;;;14.40;79.40;;;;;;5044796;28;20039;-62
2022/09/23 06:23:09;;;;;;;7.32;5.10;;;14.40;79.30;;;;;;5042596;28;20048;-61
2022/09/23 06:25:37;;;;;;;7.45;6.00;;;14.40;79.20;;;;;;5044276;28;20017;-63
2022/09/23 06:28:03;;;;;;;7.15;4.93;;;14.40;79.20;;;;;;5047980;28;20025;-61
2022/09/23 06:30:29;;;;;;;7.55;5.43;;;14.40;79.30;;;;;;5042674;28;20079;-65
2022/09/23 06:32:57;;;;;;;6.20;5.13;;;14.40;79.10;;;;;;5043229;28;20064;-62
2022/09/23 06:35:25;;;;;;;6.25;5.40;;;14.40;79.30;;;;;;5045222;28;20048;-63
2022/09/23 06:37:52;;;;;;;7.93;5.63;;;14.40;79.30;;;;;;5042395;28;20029;-62
2022/09/23 06:40:18;;;;;;;9.38;6.45;;;14.30;79.30;;;;;;5037747;28;20056;-65
2022/09/23 06:42:44;;;;;;;8.05;6.00;;;14.30;79.30;;;;;;5031589;28;20052;-62
2022/09/23 06:45:11;;;;;;;6.72;5.18;;;14.40;79.40;;;;;;5043222;28;20271;-64
2022/09/23 06:47:38;;;;;;;8.90;5.78;;;14.30;79.40;;;;;;5047123;28;20082;-62
2022/09/23 06:50:05;;;;;;;7.22;5.63;;;14.40;79.60;;;;;;5037901;28;20021;-62
2022/09/23 06:52:31;;;;;;;7.80;5.97;;;14.40;79.50;;;;;;5036772;28;20645;-62
2022/09/23 06:54:56;;;;;;;6.30;5.05;;;14.50;79.60;;;;;;5038070;28;20028;-64
2022/09/23 06:57:23;;;;;;;6.32;4.70;;;14.50;79.40;;;;;;5043868;28;20056;-61
2022/09/23 06:59:49;;;;;;;6.88;5.25;;;14.50;79.30;;;;;;5044356;28;20033;-62
2022/09/23 07:02:15;;;;;;;8.25;5.97;;;14.60;79.40;;;;;;5037516;28;20036;-63
2022/09/23 07:04:40;;;;;;;7.72;5.75;;;14.60;79.30;;;;;;5040341;28;20503;-64
2022/09/23 07:07:06;;;;;;;8.88;6.95;;;14.60;79.20;;;;;;5034251;28;20509;-61
2022/09/23 07:09:32;;;;;;;10.55;7.50;;;14.70;79.20;;;;;;5027667;28;20055;-65
2022/09/23 07:11:57;;;;;;;10.05;7.68;;;14.70;79.00;;;;;;5038639;28;20053;-65
2022/09/23 07:14:23;;;;;;;11.20;7.47;;;14.80;78.80;;;;;;5041389;28;20048;-65
2022/09/23 07:16:52;;;;;;;10.02;7.28;;;14.70;78.70;;;;;;5045854;28;20438;-61
2022/09/23 07:19:18;;;;;;;9.93;6.95;;;14.70;78.70;;;;;;5040866;28;20025;-65
2022/09/23 07:21:43;;;;;;;10.70;8.00;;;14.80;78.90;;;;;;5037848;28;20068;-65
2022/09/23 07:24:09;;;;;;;10.25;7.18;;;14.80;79.10;;;;;;5038257;28;20029;-63
2022/09/23 07:26:35;;;;;;;12.88;8.60;;;14.90;78.80;;;;;;5036819;28;20025;-65
2022/09/23 07:29:03;;;;;;;12.82;8.48;;;15.00;78.50;;;;;;5041732;28;20120;-63
2022/09/23 07:31:31;;;;;;;13.00;9.30;;;15.10;78.50;;;;;;5030309;28;20040;-63
2022/09/23 07:33:57;;;;;;;10.77;7.50;;;15.20;78.30;;;;;;5029357;28;20068;-63
2022/09/23 07:36:26;;;;;;;11.35;7.85;;;15.30;78.00;;;;;;5038421;28;20033;-63
2022/09/23 07:38:54;;;;;;;11.07;7.90;;;15.50;78.00;;;;;;5030610;28;20048;-63
2022/09/23 07:41:19;;;;;;;13.35;8.38;;;15.50;77.60;;;;;;5026641;28;20040;-64
2022/09/23 07:43:46;;;;;;;10.85;7.93;;;15.60;77.40;;;;;;5033495;28;20025;-64
2022/09/23 07:46:15;;;;;;;11.15;8.10;;;15.60;77.30;;;;;;5031532;28;20463;-61
2022/09/23 07:48:42;;;;;;;9.50;7.20;;;15.70;77.10;;;;;;5034354;28;20026;-65
2022/09/23 07:51:28;;;;;;;10.60;8.10;;;15.70;77.00;;;;;;5030945;28;20429;-63
2022/09/23 07:53:55;;;;;;;10.90;7.50;;;15.80;76.70;;;;;;5029797;28;20029;-62
2022/09/23 07:56:24;;;;;;;9.88;7.13;;;15.80;76.80;;;;;;5025600;28;20039;-63
2022/09/23 07:58:58;;;;;;;9.05;6.60;;;15.80;76.60;;;;;;5027366;28;20083;-63
2022/09/23 08:01:30;;;;;;;9.50;6.65;;;15.90;76.60;;;;;;5018529;28;20055;-65
2022/09/23 08:04:10;;;;;;;8.38;6.38;;;16.00;76.50;;;;;;5025296;28;20033;-65
2022/09/23 08:06:43;;;;;;;10.02;7.78;;;16.00;76.50;;;;;;5022562;28;20029;-65
2022/09/23 08:09:09;;;;;;;9.85;7.63;;;16.10;76.50;;;;;;5035242;28;20184;-62
2022/09/23 08:11:38;;;;;;;10.90;7.93;;;16.20;76.20;;;;;;5028041;28;20072;-64
2022/09/23 08:14:03;;;;;;;9.93;8.07;;;16.20;75.90;;;;;;5037795;28;20135;-67
2022/09/23 08:16:29;;;;;;;10.32;7.82;;;16.20;75.60;;;;;;5021963;28;20043;-64
2022/09/23 08:18:55;;;;;;;8.40;6.63;;;16.30;75.50;;;;;;5033767;28;21927;-63
2022/09/23 08:21:21;;;;;;;9.63;7.28;;;16.20;75.50;;;;;;5029279;28;20037;-63
2022/09/23 08:23:48;;;;;;;8.93;7.20;;;16.20;75.50;;;;;;5025919;28;20029;-64
2022/09/23 08:26:13;;;;;;;9.00;8.00;;;16.20;75.30;;;;;;5018342;28;20740;-64
2022/09/23 08:28:39;;;;;;;9.60;8.27;;;16.20;75.20;;;;;;5025272;28;20071;-64
2022/09/23 08:31:07;;;;;;;7.85;6.30;;;16.20;75.10;;;;;;5027442;28;20173;-62
2022/09/23 08:33:32;;;;;;;7.15;6.20;;;16.10;75.10;;;;;;5031897;28;20039;-64
2022/09/23 08:36:01;;;;;;;7.88;6.75;;;16.10;75.20;;;;;;5027910;28;20136;-62
2022/09/23 08:38:28;;;;;;;8.70;6.97;;;16.10;75.20;;;;;;5020447;28;20836;-65
2022/09/23 08:41:19;;;;;;;8.90;7.38;;;16.10;75.10;;;;;;5020437;28;20020;-61
2022/09/23 08:44:05;;;;;;;7.22;6.45;;;16.10;75.00;;;;;;5024200;28;20752;-62
2022/09/23 08:46:36;;;;;;;7.68;6.32;;;16.10;74.70;;;;;;5027802;28;20021;-65
2022/09/23 08:49:05;;;;;;;8.13;6.05;;;16.10;74.60;;;;;;5024457;28;20033;-64
2022/09/23 08:51:38;;;;;;;7.68;6.60;;;16.10;74.60;;;;;;5027598;28;20037;-63
2022/09/23 08:54:05;;;;;;;7.70;6.57;;;16.10;74.50;;;;;;5026612;28;20601;-61
2022/09/23 08:56:31;;;;;;;8.25;5.75;;;16.10;74.40;;;;;;5020996;28;20048;-61
2022/09/23 08:59:06;;;;;;;5.88;5.25;;;16.10;74.20;;;;;;5034074;28;20021;-61
2022/09/23 09:01:49;;;;;;;5.72;4.97;;;16.10;74.20;;;;;;5017979;28;20623;-63
2022/09/23 09:04:19;;;;;;;6.15;4.90;;;16.10;74.10;;;;;;5030678;28;20038;-62
2022/09/23 09:06:48;;;;;;;4.57;4.07;;;16.10;74.20;;;;;;5032651;28;20580;-61
2022/09/23 09:09:29;;;;;;;5.68;4.80;;;16.10;74.10;;;;;;5034871;28;20524;-62
2022/09/23 09:12:02;;;;;;;5.55;4.75;;;16.10;73.90;;;;;;5031000;28;20029;-62
2022/09/23 09:14:42;;;;;;;5.18;4.68;;;16.10;73.90;;;;;;5029430;28;20041;-64
2022/09/23 09:17:23;;;;;;;5.35;4.40;;;16.10;73.80;;;;;;5034039;28;20032;-62
2022/09/23 09:19:50;;;;;;;;;;;16.20;73.80;;;;;;5038186;28;21721;-61
2022/09/23 09:22:28;;;;;;;4.63;3.67;;;16.10;73.70;;;;;;5031163;28;20016;-62
2022/09/23 09:24:59;;;;;;;4.43;4.03;;;16.20;73.90;;;;;;5035641;28;20029;-63
2022/09/23 09:27:25;;;;;;;5.10;4.28;;;16.20;73.90;;;;;;5033609;28;20029;-62
2022/09/23 09:29:53;;;;;;;6.70;4.22;;;16.30;73.80;;;;;;5028310;28;20131;-65
2022/09/23 09:32:21;;;;;;;5.03;4.20;;;16.30;73.60;;;;;;5030015;28;20029;-63
2022/09/23 09:34:54;;;;;;;5.05;4.10;;;16.40;73.60;;;;;;5028910;28;20518;-64
2022/09/23 09:37:28;;;;;;;5.05;4.30;;;16.50;73.40;;;;;;5029383;28;20028;-63
2022/09/23 09:39:55;;;;;;;5.07;4.57;;;16.50;73.40;;;;;;5024116;28;20024;-64
2022/09/23 09:42:43;;;;;;;5.25;4.75;;;16.60;73.60;;;;;;5025942;28;20024;-65
2022/09/23 09:45:37;;;;;;;6.03;4.75;;;16.70;73.50;;;;;;5033182;28;20688;-64
2022/09/23 09:48:06;;;;;;;5.05;4.55;;;16.70;73.40;;;;;;5024733;28;20029;-66
2022/09/23 09:50:50;;;;;;;6.10;4.53;;;16.60;73.50;;;;;;5020662;28;20032;-65
2022/09/23 09:53:22;;;;;;;5.75;4.47;;;16.60;73.50;;;;;;5025630;28;20026;-63
2022/09/23 09:56:09;;;;;;;6.05;4.97;;;16.60;73.80;;;;;;5031184;28;20068;-63
2022/09/23 09:58:47;;;;;;;5.25;4.63;;;16.50;73.90;;;;;;5039344;28;20108;-65
2022/09/23 10:01:30;;;;;;;5.30;4.80;;;16.50;74.10;;;;;;5039757;28;21787;-64
2022/09/23 10:04:02;;;;;;;5.85;4.88;;;16.50;74.40;;;;;;5032239;28;20075;-65
2022/09/23 10:06:33;;;;;;;6.10;4.32;;;16.40;74.50;;;;;;5027679;28;20033;-63
2022/09/23 10:09:12;;;;;;;5.45;3.70;;;16.40;74.50;;;;;;5031950;28;20025;-63
2022/09/23 10:11:39;;;;;;;4.28;3.67;;;16.40;74.80;;;;;;5035360;28;20128;-65
2022/09/23 10:14:16;;;;;;;5.80;3.95;;;16.40;74.90;;;;;;5043627;28;20051;-62
2022/09/23 10:16:43;;;;;;;5.50;4.25;;;16.40;74.80;;;;;;5043437;28;20062;-64
2022/09/23 10:19:20;;;;;;;4.68;3.83;;;16.40;74.70;;;;;;5032553;28;20024;-62
2022/09/23 10:21:51;;;;;;;4.72;3.72;;;16.50;74.70;;;;;;5022600;28;20045;-65
2022/09/23 10:24:20;;;;;;;;;;;16.50;74.40;;;;;;5013471;28;20059;-63
2022/09/23 10:26:54;;;;;;;4.82;3.78;;;16.50;74.30;;;;;;5028246;28;19916;-63
2022/09/23 10:29:30;;;;;;;5.47;4.40;;;16.60;74.20;;;;;;5034760;28;20759;-60
2022/09/23 10:32:26;;;;;;;5.13;4.22;;;16.60;74.20;;;;;;5031907;28;20059;-63
2022/09/23 10:34:56;;;;;;;5.70;4.47;;;16.60;74.10;;;;;;5036440;28;20110;-63
2022/09/23 10:37:30;;;;;;;6.65;5.15;;;16.60;74.10;;;;;;5033463;28;20128;-63
2022/09/23 10:48:46;;;;;;;5.78;4.80;;;16.60;74.40;;;;;;5035301;28;20074;-62
2022/09/23 10:51:22;;;;;;;5.93;4.65;;;16.60;74.60;;;;;;5020923;28;20021;-62
2022/09/23 10:53:55;;;;;;;5.30;4.38;;;16.60;74.50;;;;;;5040429;28;20059;-61
2022/09/23 10:56:43;;;;;;;4.70;3.90;;;16.60;74.30;;;;;;5035031;28;20070;-61
2022/09/23 10:59:13;;;;;;;4.22;3.47;;;16.60;74.10;;;;;;5036803;28;20025;-64
2022/09/23 11:02:16;;;;;;;4.18;3.47;;;16.60;74.30;;;;;;5037632;28;20020;-64
2022/09/23 11:05:10;;;;;;;3.95;3.28;;;16.60;74.10;;;;;;5034593;28;20412;-62
2022/09/23 11:08:09;;;;;;;3.92;3.28;;;16.70;73.80;;;;;;5029082;28;20025;-62
2022/09/23 11:10:51;;;;;;;4.15;3.38;;;16.70;73.50;;;;;;5034395;28;20029;-62
2022/09/23 11:13:41;;;;;;;3.08;2.78;;;16.70;73.50;;;;;;5041288;28;20052;-61
2022/09/23 11:16:07;;;;;;;4.85;3.80;;;16.80;73.40;;;;;;5037243;28;20028;-62
2022/09/23 11:18:53;;;;;;;4.18;3.53;;;16.80;73.10;;;;;;5038609;28;20572;-63
2022/09/23 11:22:00;;;;;;;4.50;3.83;;;16.90;72.90;;;;;;5042021;28;20032;-62
2022/09/23 11:24:36;;;;;;;3.70;3.30;;;16.90;72.80;;;;;;5031700;28;20035;-61
2022/09/23 11:27:04;;;;;;;3.80;3.03;;;17.00;72.60;;;;;;5032276;28;20043;-61
2022/09/23 11:29:48;;;;;;;3.10;2.80;;;16.90;72.20;;;;;;5022014;28;20029;-61
2022/09/23 11:32:30;;;;;;;2.78;2.58;;;16.90;72.10;;;;;;5035322;28;20288;-63
2022/09/23 11:35:02;;;;;;;;;;;16.90;71.80;;;;;;5037568;28;20090;-64
2022/09/23 11:37:32;;;;;;;2.60;2.40;;;16.90;71.40;;;;;;5025287;28;20436;-63
2022/09/23 11:40:15;;;;;;;2.10;1.90;;;16.90;71.60;;;;;;5018853;28;20036;-62
2022/09/23 11:42:58;;;;;;;3.13;2.50;;;16.90;71.50;;;;;;5018105;28;20036;-65
2022/09/23 11:45:31;;;;;;;2.50;2.30;;;16.90;71.20;;;;;;5028981;28;20033;-61
2022/09/23 11:48:08;;;;;;;3.25;2.45;;;16.90;70.90;;;;;;5027817;28;20392;-63
2022/09/23 11:50:39;;;;;;;2.75;2.50;;;16.90;70.70;;;;;;5031436;28;20031;-65
2022/09/23 11:53:30;;;;;;;2.53;2.33;;;16.80;70.40;;;;;;5030413;28;20063;-63
2022/09/23 11:56:04;;;;;;;2.30;2.10;;;16.80;70.30;;;;;;5020469;28;20723;-64
2022/09/23 11:58:38;;;;;;;2.80;2.55;;;16.80;70.50;;;;;;5031337;28;20087;-64
2022/09/23 12:01:11;;;;;;;3.58;3.13;;;16.70;70.50;;;;;;5032784;28;20037;-61
2022/09/23 12:03:45;;;;;;;4.68;3.40;;;16.70;70.60;;;;;;5027255;28;20622;-61
2022/09/23 12:06:19;;;;;;;4.40;3.30;;;16.60;70.80;;;;;;5024360;28;20106;-63
2022/09/23 12:08:46;;;;;;;4.00;3.22;;;16.50;70.90;;;;;;5032617;28;20479;-63
2022/09/23 12:11:27;;;;;;;3.45;2.75;;;16.40;71.10;;;;;;5027323;28;20366;-65
2022/09/23 12:13:59;;;;;;;;;;;16.40;71.40;;;;;;5031742;28;20045;-61
2022/09/23 12:16:41;;;;;;;4.28;3.00;;;16.30;71.70;;;;;;5031606;28;20756;-62
2022/09/23 12:19:21;;;;;;;3.72;2.83;;;16.30;71.80;;;;;;5021098;28;20047;-63
2022/09/23 12:22:22;;;;;;;3.10;2.80;;;16.20;72.00;;;;;;5023564;28;20040;-65
2022/09/23 12:25:36;;;;;;;4.35;3.35;;;16.20;72.20;;;;;;5029575;28;20029;-64
2022/09/23 12:28:09;;;;;;;3.75;3.13;;;16.10;72.50;;;;;;5027645;28;20055;-61
2022/09/23 12:30:36;;;;;;;4.05;3.10;;;16.10;72.50;;;;;;5034752;28;20021;-64
2022/09/23 12:33:26;;;;;;;3.65;2.92;;;16.10;72.90;;;;;;5036600;28;20037;-63
2022/09/23 12:36:13;;;;;;;4.20;3.13;;;16.00;73.20;;;;;;5029530;28;20094;-64
2022/09/23 12:38:50;;;;;;;4.38;3.30;;;16.00;73.30;;;;;;5032514;28;20037;-63
2022/09/23 12:41:25;;;;;;;4.65;3.70;;;15.90;73.50;;;;;;5028718;28;20036;-63
2022/09/23 12:43:54;;;;;;;5.18;3.63;;;15.90;73.80;;;;;;5028028;28;20033;-64
2022/09/23 12:46:26;;;;;;;5.32;3.85;;;15.90;73.90;;;;;;5025932;28;20029;-63
2022/09/23 12:49:00;;;;;;;;;;;15.80;74.30;;;;;;5031247;28;20059;-64
2022/09/23 12:51:34;;;;;;;4.50;3.30;;;15.70;74.90;;;;;;5028040;28;19917;-64
2022/09/23 12:54:03;;;;;;;3.42;2.70;;;15.70;74.10;;;;;;5027443;28;20044;-61
2022/09/23 12:56:35;;;;;;;2.13;1.98;;;15.60;74.20;;;;;;5017995;28;20488;-64
2022/09/23 12:59:16;;;;;;;2.38;2.17;;;15.60;74.40;;;;;;5029758;28;20170;-64
2022/09/23 13:01:42;;;;;;;2.25;2.05;;;15.50;74.60;;;;;;5030175;28;20038;-65
2022/09/23 13:07:21;;;;;;;2.30;2.10;;;15.60;74.90;;;;;;5034245;28;20044;-62
2022/09/23 13:09:49;;;;;;;3.35;2.40;;;15.50;75.00;;;;;;5037533;28;20037;-65
2022/09/23 13:12:31;;;;;;;3.40;2.75;;;15.50;75.00;;;;;;5041385;28;20206;-65
2022/09/23 13:15:02;;;;;;;3.78;2.97;;;15.50;75.00;;;;;;5039228;28;20155;-66
2022/09/23 13:17:35;;;;;;;4.13;3.30;;;15.50;75.00;;;;;;5039958;28;20570;-67
2022/09/23 13:20:25;;;;;;;4.38;3.20;;;15.50;75.00;;;;;;5029574;28;20095;-66
2022/09/23 13:22:50;;;;;;;3.35;2.78;;;15.40;75.00;;;;;;5036089;28;20032;-65
2022/09/23 13:25:32;;;;;;;4.03;3.08;;;15.30;75.20;;;;;;5042383;28;20034;-66
2022/09/23 13:27:59;;;;;;;;;;;15.20;75.10;;;;;;5053967;28;20832;-65
2022/09/23 13:30:25;;;;;;;2.60;2.40;;;15.20;75.30;;;;;;5041456;28;19967;-66
2022/09/23 13:33:15;;;;;;;3.42;2.30;;;15.10;75.50;;;;;;5035743;28;20037;-65